Time;durP1;ratioP1;P1;durP2;ratioP2;P2;SDS_P1;SDS_P2;PMS_P1;PMS_P2;Temp;Humidity;BMP_temperature;BMP_pressure;BME280_temperature;BME280_humidity;BME280_pressure;Samples;Min_cycle;Max_cycle;Signal;HPM_P1;HPM_P2
2021/04/24 09:57:21;;;;;;;5.28;3.20;;;11.80;58.30;;;;;;5504750;23;20055;-67
2021/04/24 09:59:52;;;;;;;3.45;2.40;;;11.90;56.80;;;;;;4913521;29;20118;-68
2021/04/24 10:02:28;;;;;;;2.90;2.40;;;11.90;55.30;;;;;;4914860;29;20032;-67
2021/04/24 10:05:09;;;;;;;5.13;2.85;;;12.00;55.60;;;;;;4904548;29;20024;-66
2021/04/24 10:07:39;;;;;;;3.92;2.58;;;12.00;54.60;;;;;;4897438;29;20401;-67
2021/04/24 10:10:10;;;;;;;5.40;3.00;;;12.00;53.90;;;;;;4897575;29;20049;-65
2021/04/24 10:12:37;;;;;;;2.97;2.60;;;12.00;54.50;;;;;;4896974;29;20032;-66
2021/04/24 10:15:03;;;;;;;4.95;3.05;;;12.10;54.70;;;;;;4900658;29;20028;-67
2021/04/24 10:17:29;;;;;;;3.53;2.30;;;12.10;53.90;;;;;;4916336;29;20068;-67
2021/04/24 10:19:55;;;;;;;5.20;2.78;;;12.20;52.60;;;;;;4914143;29;20052;-65
2021/04/24 10:22:23;;;;;;;5.45;3.15;;;12.20;52.10;;;;;;4915320;29;20032;-65
2021/04/24 10:24:49;;;;;;;5.40;2.78;;;12.30;53.00;;;;;;4914957;29;20027;-63
2021/04/24 10:27:16;;;;;;;4.72;3.00;;;12.40;54.30;;;;;;4918346;29;20437;-67
2021/04/24 10:29:44;;;;;;;3.40;2.70;;;12.40;54.40;;;;;;4917863;29;20392;-70
2021/04/24 10:32:10;;;;;;;4.88;2.90;;;12.50;54.70;;;;;;4917990;29;20032;-71
2021/04/24 10:34:36;;;;;;;3.70;2.80;;;12.70;52.70;;;;;;4914924;29;20032;-70
2021/04/24 10:37:03;;;;;;;4.00;2.33;;;12.70;52.10;;;;;;4915675;29;20031;-69
2021/04/24 10:39:40;;;;;;;4.22;3.40;;;12.80;48.90;;;;;;4915199;29;20052;-69
2021/04/24 10:42:20;;;;;;;5.40;2.90;;;12.80;48.70;;;;;;4915846;29;20028;-69
2021/04/24 10:44:53;;;;;;;5.78;2.65;;;12.80;50.20;;;;;;4913943;29;20480;-70
2021/04/24 10:47:51;;;;;;;4.75;2.63;;;12.90;50.70;;;;;;4914345;29;20119;-67
2021/04/24 10:50:20;;;;;;;5.43;2.40;;;12.90;49.80;;;;;;4910108;29;20052;-67
2021/04/24 10:52:46;;;;;;;4.38;2.70;;;13.00;49.20;;;;;;4912534;29;20491;-69
2021/04/24 10:55:17;;;;;;;5.13;3.10;;;13.20;48.90;;;;;;4896341;29;20032;-68
2021/04/24 10:57:49;;;;;;;7.50;2.75;;;13.20;49.60;;;;;;4905601;29;20057;-68
2021/04/24 11:00:21;;;;;;;4.65;3.05;;;13.40;49.10;;;;;;4896293;29;20032;-67
2021/04/24 11:02:54;;;;;;;5.57;3.17;;;13.50;48.90;;;;;;4896644;29;20384;-67
2021/04/24 11:05:28;;;;;;;5.43;3.30;;;13.60;47.30;;;;;;4901100;29;20024;-68
2021/04/24 11:08:14;;;;;;;5.20;3.60;;;13.60;48.10;;;;;;4912482;29;20374;-69
2021/04/24 11:11:05;;;;;;;3.95;3.40;;;13.80;48.30;;;;;;4914594;29;20020;-68
2021/04/24 11:13:32;;;;;;;5.90;4.13;;;13.90;48.00;;;;;;4897655;29;20382;-69
2021/04/24 11:15:59;;;;;;;6.55;3.53;;;13.90;49.00;;;;;;4895570;29;20107;-70
2021/04/24 11:18:25;;;;;;;6.28;3.40;;;14.00;48.10;;;;;;4895024;29;20103;-69
2021/04/24 11:20:56;;;;;;;7.80;4.35;;;14.10;48.70;;;;;;4896066;29;20115;-67
2021/04/24 11:23:43;;;;;;;6.40;3.75;;;14.30;49.00;;;;;;4895888;29;20165;-68
2021/04/24 11:26:15;;;;;;;6.85;3.90;;;14.50;46.80;;;;;;4902151;29;20032;-69
2021/04/24 11:28:59;;;;;;;6.20;4.32;;;14.50;47.20;;;;;;4901228;29;20067;-70
2021/04/24 11:31:43;;;;;;;5.57;4.13;;;14.60;47.60;;;;;;4915272;29;20039;-70
2021/04/24 11:34:37;;;;;;;5.78;3.70;;;14.70;48.90;;;;;;4914763;29;20111;-67
2021/04/24 11:37:15;;;;;;;6.10;4.55;;;14.60;46.80;;;;;;4913873;29;20075;-69
2021/04/24 11:40:22;;;;;;;7.40;3.97;;;14.50;46.30;;;;;;4914834;29;20477;-72
2021/04/24 11:42:53;;;;;;;9.23;4.57;;;14.40;47.40;;;;;;4914018;29;20028;-69
2021/04/24 11:45:47;;;;;;;7.57;4.20;;;14.60;49.30;;;;;;4915017;29;20028;-70
2021/04/24 11:48:13;;;;;;;7.97;4.53;;;14.80;48.00;;;;;;4914059;29;20036;-71
2021/04/24 11:50:42;;;;;;;6.07;4.93;;;15.00;48.00;;;;;;4912567;29;20437;-68
2021/04/24 11:53:08;;;;;;;8.32;5.10;;;15.20;48.10;;;;;;4913146;29;20032;-66
2021/04/24 11:55:34;;;;;;;7.88;5.38;;;15.40;48.00;;;;;;4913399;29;20350;-66
2021/04/24 11:58:08;;;;;;;8.93;5.15;;;15.40;46.90;;;;;;4909342;29;20055;-65
2021/04/24 12:00:34;;;;;;;8.63;5.65;;;15.30;47.60;;;;;;4913701;29;20032;-65
2021/04/24 12:02:59;;;;;;;10.43;4.75;;;15.30;48.60;;;;;;4913012;29;20028;-66
2021/04/24 12:05:25;;;;;;;7.40;4.20;;;15.40;48.70;;;;;;4914019;29;20032;-65
2021/04/24 12:07:51;;;;;;;6.43;4.53;;;15.60;48.80;;;;;;4914141;29;20044;-68
2021/04/24 12:10:17;;;;;;;6.88;4.57;;;15.70;48.30;;;;;;4913380;29;20036;-66
2021/04/24 12:12:48;;;;;;;6.28;4.78;;;15.70;46.30;;;;;;4913823;29;20039;-67
2021/04/24 12:15:14;;;;;;;6.90;5.22;;;15.50;47.40;;;;;;4914663;29;20024;-68
2021/04/24 12:17:52;;;;;;;10.90;5.20;;;15.40;47.10;;;;;;4913540;29;20059;-68
2021/04/24 12:20:25;;;;;;;7.03;4.65;;;15.10;47.50;;;;;;4914625;29;20354;-67
2021/04/24 12:22:51;;;;;;;6.13;4.65;;;15.00;49.70;;;;;;4914234;29;20042;-66
2021/04/24 12:25:19;;;;;;;7.90;5.15;;;15.10;50.30;;;;;;4914001;29;20515;-65
2021/04/24 12:27:50;;;;;;;10.13;5.40;;;15.20;49.30;;;;;;4912229;29;20028;-66
2021/04/24 12:30:19;;;;;;;9.63;5.75;;;15.10;49.10;;;;;;4913324;29;20029;-67
2021/04/24 12:32:55;;;;;;;10.07;5.55;;;15.00;49.70;;;;;;4913053;29;20503;-67
2021/04/24 12:35:29;;;;;;;9.45;5.50;;;14.80;50.60;;;;;;4913570;29;20060;-67
2021/04/24 12:38:05;;;;;;;8.60;4.88;;;15.00;51.60;;;;;;4908890;29;20481;-69
2021/04/24 12:40:51;;;;;;;9.07;4.95;;;15.20;51.30;;;;;;4894952;29;20036;-67
2021/04/24 12:43:29;;;;;;;9.00;5.57;;;15.20;49.70;;;;;;4898986;29;20476;-66
2021/04/24 12:45:58;;;;;;;9.88;5.40;;;15.00;48.90;;;;;;4911834;29;20079;-67
2021/04/24 12:48:36;;;;;;;9.13;4.43;;;14.80;49.80;;;;;;4913972;29;20035;-66
2021/04/24 12:51:03;;;;;;;7.13;4.85;;;14.80;50.40;;;;;;4905907;29;20354;-66
2021/04/24 12:53:41;;;;;;;6.90;4.38;;;14.90;50.60;;;;;;4906041;29;20029;-67
2021/04/24 12:56:22;;;;;;;8.93;4.00;;;14.90;48.90;;;;;;4898520;29;20035;-66
2021/04/24 12:58:53;;;;;;;9.25;4.63;;;14.80;49.90;;;;;;4909860;29;20052;-65
2021/04/24 13:01:24;;;;;;;11.20;5.28;;;14.90;51.10;;;;;;4917493;29;20115;-66
2021/04/24 13:03:51;;;;;;;7.10;4.30;;;15.00;50.40;;;;;;4916459;29;20063;-66
2021/04/24 13:06:19;;;;;;;7.47;4.50;;;15.00;50.00;;;;;;4917789;29;20275;-65
2021/04/24 13:09:05;;;;;;;7.90;4.55;;;15.00;50.60;;;;;;4915357;29;20039;-67
2021/04/24 13:11:41;;;;;;;9.10;4.72;;;15.10;50.00;;;;;;4917448;29;20031;-66
2021/04/24 13:14:12;;;;;;;9.77;4.63;;;15.10;50.30;;;;;;4916885;29;20103;-66
2021/04/24 13:16:38;;;;;;;7.90;4.50;;;15.10;49.20;;;;;;4917604;29;20021;-66
2021/04/24 13:19:04;;;;;;;8.63;4.53;;;15.10;50.10;;;;;;4915807;29;20024;-65
2021/04/24 13:21:36;;;;;;;7.63;4.43;;;15.00;49.50;;;;;;4916882;29;20036;-66
2021/04/24 13:24:08;;;;;;;8.98;4.60;;;15.00;49.40;;;;;;4917317;29;20024;-67
2021/04/24 13:26:40;;;;;;;10.57;5.07;;;14.90;49.20;;;;;;4917203;29;20111;-65
2021/04/24 13:29:24;;;;;;;10.10;5.38;;;14.90;49.40;;;;;;4916762;29;20045;-65
2021/04/24 13:31:58;;;;;;;8.75;4.75;;;14.80;49.30;;;;;;4917111;29;20489;-67
2021/04/24 13:34:24;;;;;;;10.02;5.65;;;14.80;49.30;;;;;;4917142;29;20107;-66
2021/04/24 13:36:54;;;;;;;9.38;4.47;;;14.90;49.70;;;;;;4916164;29;20287;-66
2021/04/24 13:39:20;;;;;;;6.55;4.13;;;14.90;48.80;;;;;;4917776;29;20040;-65
2021/04/24 13:41:45;;;;;;;6.25;3.80;;;14.90;49.40;;;;;;4916880;29;20028;-67
2021/04/24 13:44:12;;;;;;;7.90;3.95;;;14.90;50.20;;;;;;4916770;29;20484;-66
2021/04/24 13:46:52;;;;;;;6.75;3.45;;;14.90;48.80;;;;;;4916981;29;20069;-67
2021/04/24 13:49:20;;;;;;;8.88;4.05;;;14.80;46.50;;;;;;4916454;29;20036;-65
2021/04/24 13:51:47;;;;;;;9.10;3.72;;;14.60;47.20;;;;;;4916823;29;20061;-66
2021/04/24 13:54:13;;;;;;;8.52;4.90;;;14.60;47.50;;;;;;4917180;29;20091;-66
2021/04/24 13:56:39;;;;;;;10.40;4.38;;;14.60;47.90;;;;;;4916147;29;20028;-66
2021/04/24 13:59:09;;;;;;;6.82;3.60;;;14.60;48.20;;;;;;4916659;29;20055;-67
2021/04/24 14:01:36;;;;;;;6.78;4.28;;;14.60;47.80;;;;;;4916760;29;20020;-66
2021/04/24 14:04:02;;;;;;;6.65;4.00;;;14.60;47.80;;;;;;4915719;29;20034;-67
2021/04/24 14:06:28;;;;;;;5.65;3.50;;;14.60;47.90;;;;;;4915733;29;20071;-65
2021/04/24 14:08:54;;;;;;;7.70;3.22;;;14.60;48.60;;;;;;4916213;29;20051;-66
2021/04/24 14:11:20;;;;;;;6.00;3.30;;;14.60;48.60;;;;;;4914697;29;20024;-65
2021/04/24 14:13:46;;;;;;;6.57;3.28;;;14.70;47.70;;;;;;4914657;29;20088;-65
2021/04/24 14:16:11;;;;;;;8.07;3.67;;;14.70;47.60;;;;;;4916806;29;20115;-66
2021/04/24 14:18:38;;;;;;;7.47;3.72;;;14.60;47.10;;;;;;4915893;29;20038;-66
2021/04/24 14:21:04;;;;;;;13.30;4.40;;;14.50;47.10;;;;;;4916167;29;20466;-68
2021/04/24 14:23:31;;;;;;;8.63;3.72;;;14.40;47.80;;;;;;4916345;29;20032;-65
2021/04/24 14:25:57;;;;;;;8.55;3.40;;;14.40;47.00;;;;;;4915474;29;20091;-68
2021/04/24 14:28:23;;;;;;;6.93;2.95;;;14.30;47.20;;;;;;4916265;29;20052;-67
2021/04/24 14:30:49;;;;;;;6.28;2.67;;;14.30;47.10;;;;;;4916019;29;20091;-66
2021/04/24 14:33:15;;;;;;;10.98;3.25;;;14.30;47.30;;;;;;4914593;29;20397;-67
2021/04/24 14:35:40;;;;;;;4.97;2.47;;;14.30;47.70;;;;;;4916017;29;20020;-65
2021/04/24 14:38:06;;;;;;;7.88;2.58;;;14.30;47.30;;;;;;4916053;29;20425;-66
2021/04/24 14:40:32;;;;;;;7.97;2.65;;;14.30;46.30;;;;;;4915439;29;20028;-66
2021/04/24 14:42:57;;;;;;;10.88;2.72;;;14.30;46.80;;;;;;4915685;29;20024;-66
2021/04/24 14:45:23;;;;;;;7.60;2.65;;;14.30;46.20;;;;;;4914350;29;20377;-66
2021/04/24 14:47:49;;;;;;;6.35;2.50;;;14.30;46.10;;;;;;4914401;29;20040;-68
2021/04/24 14:50:15;;;;;;;6.38;2.53;;;14.20;45.30;;;;;;4915872;29;20484;-65
2021/04/24 14:52:44;;;;;;;8.15;2.25;;;14.10;44.90;;;;;;4915162;29;20854;-67
2021/04/24 14:55:14;;;;;;;6.35;2.10;;;14.00;45.50;;;;;;4916360;29;20021;-67
2021/04/24 14:57:41;;;;;;;6.57;1.90;;;14.00;45.40;;;;;;4915432;29;20054;-67
2021/04/24 15:00:11;;;;;;;3.63;2.08;;;14.00;43.50;;;;;;4914936;29;20429;-67
2021/04/24 15:02:36;;;;;;;4.05;1.75;;;14.20;43.50;;;;;;4915675;29;20489;-66
2021/04/24 15:05:02;;;;;;;5.82;2.50;;;14.20;42.30;;;;;;4914065;29;20043;-66
2021/04/24 15:07:28;;;;;;;5.25;1.80;;;14.30;41.90;;;;;;4915026;29;20042;-67
2021/04/24 15:09:53;;;;;;;13.00;2.63;;;14.40;42.40;;;;;;4913865;29;20031;-66
2021/04/24 15:12:19;;;;;;;2.55;1.75;;;14.50;42.10;;;;;;4914676;29;20097;-67
2021/04/24 15:14:44;;;;;;;4.75;1.90;;;14.60;41.50;;;;;;4914316;29;20027;-68
2021/04/24 15:17:10;;;;;;;6.45;2.10;;;14.70;41.40;;;;;;4915553;29;20028;-69
2021/04/24 15:19:40;;;;;;;3.35;1.60;;;14.80;41.00;;;;;;4915011;29;20024;-66
2021/04/24 15:22:06;;;;;;;3.72;1.70;;;14.80;40.20;;;;;;4905039;29;20024;-66
2021/04/24 15:24:32;;;;;;;4.60;1.88;;;14.70;40.60;;;;;;4892810;29;20085;-66
2021/04/24 15:26:58;;;;;;;7.22;2.42;;;14.80;39.90;;;;;;4906157;29;20497;-72
2021/04/24 15:29:24;;;;;;;7.13;2.00;;;14.80;40.20;;;;;;4892188;29;20032;-70
2021/04/24 15:31:50;;;;;;;9.18;1.75;;;14.80;40.90;;;;;;4900518;29;20028;-71
2021/04/24 15:34:18;;;;;;;5.75;2.05;;;14.90;40.80;;;;;;4897942;29;20080;-72
2021/04/24 15:36:45;;;;;;;13.32;8.13;;;14.90;40.80;;;;;;4905642;29;20032;-71
2021/04/24 15:39:11;;;;;;;7.30;2.88;;;15.10;41.30;;;;;;4897373;29;20140;-71
2021/04/24 15:41:37;;;;;;;4.25;1.88;;;15.10;40.90;;;;;;4903043;29;20041;-70
2021/04/24 15:44:03;;;;;;;5.00;2.00;;;15.10;40.40;;;;;;4892694;29;20424;-72
2021/04/24 15:46:30;;;;;;;8.20;3.03;;;15.10;40.10;;;;;;4892358;29;20039;-68
2021/04/24 15:48:56;;;;;;;3.88;1.80;;;14.90;40.30;;;;;;4891616;29;20059;-70
2021/04/24 15:51:22;;;;;;;6.05;2.25;;;14.90;41.10;;;;;;4892663;29;20417;-70
2021/04/24 15:53:47;;;;;;;4.20;2.05;;;14.90;41.50;;;;;;4892497;29;20028;-71
2021/04/24 15:56:13;;;;;;;5.05;2.10;;;15.00;41.30;;;;;;4892400;29;20037;-68
2021/04/24 15:58:39;;;;;;;6.05;2.15;;;14.90;41.10;;;;;;4890588;29;20041;-66
2021/04/24 16:01:06;;;;;;;4.63;2.33;;;14.80;40.90;;;;;;4892706;29;20062;-66
2021/04/24 16:03:32;;;;;;;7.10;2.05;;;14.70;41.20;;;;;;4890757;29;20031;-69
2021/04/24 16:05:58;;;;;;;4.97;2.40;;;14.70;41.30;;;;;;4892032;29;20024;-67
2021/04/24 16:08:23;;;;;;;5.63;2.22;;;14.60;41.70;;;;;;4892350;29;20494;-66
2021/04/24 16:10:49;;;;;;;7.10;2.63;;;14.60;41.00;;;;;;4891281;29;20536;-69
2021/04/24 16:13:14;;;;;;;6.57;2.55;;;14.40;41.60;;;;;;4892414;29;20032;-67
2021/04/24 16:15:40;;;;;;;11.18;2.90;;;14.40;41.80;;;;;;4891163;29;20386;-66
2021/04/24 16:18:06;;;;;;;4.15;2.30;;;14.40;42.40;;;;;;4891720;29;20379;-65
2021/04/24 16:20:32;;;;;;;5.57;2.28;;;14.40;43.10;;;;;;4892044;29;20044;-65
2021/04/24 16:22:59;;;;;;;5.22;2.10;;;14.60;43.20;;;;;;4891502;29;20688;-70
2021/04/24 16:25:25;;;;;;;5.40;2.40;;;14.60;41.80;;;;;;4891917;29;20580;-66
2021/04/24 16:27:51;;;;;;;5.57;2.38;;;14.60;41.90;;;;;;4891822;29;20076;-67
2021/04/24 16:30:18;;;;;;;7.13;2.35;;;14.50;42.00;;;;;;4892483;29;20052;-67
2021/04/24 16:32:44;;;;;;;2.30;1.80;;;14.50;42.90;;;;;;4892347;29;20043;-68
2021/04/24 16:35:10;;;;;;;5.80;1.92;;;14.70;42.70;;;;;;4897181;29;20024;-76
2021/04/24 16:37:36;;;;;;;6.25;3.22;;;15.00;41.80;;;;;;4912647;29;20071;-68
2021/04/24 16:40:03;;;;;;;6.97;2.85;;;15.00;41.30;;;;;;4915527;29;20107;-69
2021/04/24 16:42:29;;;;;;;5.65;2.65;;;14.90;41.20;;;;;;4915871;29;20024;-66
2021/04/24 16:44:55;;;;;;;5.82;2.08;;;14.60;42.50;;;;;;4914544;29;20028;-69
2021/04/24 16:47:20;;;;;;;7.85;2.05;;;14.40;42.10;;;;;;4905068;29;20046;-69
2021/04/24 16:49:46;;;;;;;7.10;2.47;;;14.10;42.10;;;;;;4902347;29;20112;-72
2021/04/24 16:52:12;;;;;;;6.40;2.40;;;14.00;42.50;;;;;;4914333;29;20036;-73
2021/04/24 16:54:37;;;;;;;4.40;2.25;;;13.80;43.60;;;;;;4915076;29;20083;-70
2021/04/24 16:57:04;;;;;;;5.75;2.40;;;13.70;43.60;;;;;;4915327;29;20593;-73
2021/04/24 16:59:30;;;;;;;4.63;2.08;;;13.60;43.70;;;;;;4913859;29;20056;-71
2021/04/24 17:01:55;;;;;;;7.15;2.55;;;13.60;44.20;;;;;;4902089;29;20036;-73
2021/04/24 17:04:21;;;;;;;6.18;2.95;;;13.60;44.20;;;;;;4900159;29;20101;-72
2021/04/24 17:06:46;;;;;;;6.15;2.45;;;13.50;45.10;;;;;;4928565;29;20050;-73
2021/04/24 17:09:12;;;;;;;3.97;2.00;;;13.50;43.60;;;;;;4916463;29;20370;-74
2021/04/24 17:11:38;;;;;;;5.50;2.15;;;13.30;44.00;;;;;;4916962;29;20021;-73
2021/04/24 17:14:04;;;;;;;5.57;2.30;;;13.20;44.40;;;;;;4915361;29;20059;-71
2021/04/24 17:16:29;;;;;;;7.65;2.60;;;13.10;44.90;;;;;;4898043;29;20483;-72
2021/04/24 17:18:55;;;;;;;4.85;2.33;;;13.10;44.60;;;;;;4911955;29;20119;-70
2021/04/24 17:21:21;;;;;;;5.97;2.70;;;13.10;44.70;;;;;;4905485;29;20036;-70
2021/04/24 17:23:47;;;;;;;4.97;2.30;;;13.00;44.90;;;;;;4899319;29;20064;-73
2021/04/24 17:26:12;;;;;;;6.53;2.38;;;13.10;45.00;;;;;;4913636;29;20067;-75
2021/04/24 17:28:38;;;;;;;6.05;2.25;;;13.30;45.40;;;;;;4914912;29;20067;-68
2021/04/24 17:31:04;;;;;;;7.43;2.45;;;13.40;44.70;;;;;;4916321;29;20040;-70
2021/04/24 17:33:32;;;;;;;5.88;2.65;;;13.50;44.40;;;;;;4899453;29;20187;-68
2021/04/24 17:35:58;;;;;;;3.50;1.98;;;13.50;44.70;;;;;;4906562;29;20020;-69
2021/04/24 17:38:24;;;;;;;5.13;2.33;;;13.40;44.70;;;;;;4916798;29;20404;-70
2021/04/24 17:40:49;;;;;;;4.97;2.03;;;13.30;45.00;;;;;;4909945;29;20027;-70
2021/04/24 17:43:15;;;;;;;6.03;2.28;;;13.20;44.70;;;;;;4897112;29;20390;-68
2021/04/24 17:45:41;;;;;;;5.45;2.38;;;13.00;45.50;;;;;;4901970;29;20781;-73
2021/04/24 17:48:07;;;;;;;5.32;1.98;;;12.90;45.60;;;;;;4912037;29;20062;-71
2021/04/24 17:50:33;;;;;;;5.78;2.17;;;12.80;46.00;;;;;;4909478;29;20571;-71
2021/04/24 17:52:58;;;;;;;5.07;2.63;;;12.70;46.30;;;;;;4894778;29;20032;-71
2021/04/24 17:55:25;;;;;;;4.07;2.35;;;12.60;46.70;;;;;;4894524;29;20426;-72
2021/04/24 17:57:51;;;;;;;4.15;2.10;;;12.50;46.60;;;;;;4894045;29;20053;-69
2021/04/24 18:00:22;;;;;;;4.22;2.38;;;12.40;46.30;;;;;;4898470;29;20519;-74
2021/04/24 18:02:49;;;;;;;6.88;2.40;;;12.30;46.10;;;;;;4913108;29;20027;-72
2021/04/24 18:05:15;;;;;;;3.88;1.95;;;12.10;46.10;;;;;;4912029;29;20055;-72
2021/04/24 18:07:41;;;;;;;3.88;2.17;;;12.00;46.40;;;;;;4911974;29;20091;-72
2021/04/24 18:10:10;;;;;;;5.10;2.35;;;11.90;46.50;;;;;;4912565;29;20032;-69
2021/04/24 18:12:36;;;;;;;6.20;2.30;;;11.80;46.30;;;;;;4911938;29;20032;-73
2021/04/24 18:15:07;;;;;;;5.55;2.50;;;11.70;47.10;;;;;;4911023;29;20384;-69
2021/04/24 18:17:32;;;;;;;7.72;2.47;;;11.60;47.40;;;;;;4910919;29;20036;-70
2021/04/24 18:19:58;;;;;;;5.97;2.35;;;11.60;47.30;;;;;;4900810;29;20028;-68
2021/04/24 18:22:23;;;;;;;5.38;2.20;;;11.50;47.30;;;;;;4907040;29;20046;-69
2021/04/24 18:24:49;;;;;;;7.05;2.30;;;11.40;47.60;;;;;;4905167;29;20052;-69
2021/04/24 18:27:15;;;;;;;3.80;2.33;;;11.40;48.50;;;;;;4900514;29;20085;-69
2021/04/24 18:29:40;;;;;;;4.88;2.47;;;11.20;48.60;;;;;;4900616;29;20104;-70
2021/04/24 18:32:06;;;;;;;6.05;2.38;;;11.20;48.30;;;;;;4895367;29;20039;-69
2021/04/24 18:34:33;;;;;;;5.07;2.50;;;11.10;48.40;;;;;;4905051;29;20056;-68
2021/04/24 18:37:00;;;;;;;4.50;2.50;;;11.00;49.40;;;;;;4912597;29;20051;-73
2021/04/24 18:39:27;;;;;;;5.75;2.35;;;10.90;50.30;;;;;;4912502;29;20043;-69
2021/04/24 18:41:53;;;;;;;4.75;2.72;;;10.90;49.70;;;;;;4901816;29;20024;-69
2021/04/24 18:44:18;;;;;;;4.22;2.33;;;10.80;49.70;;;;;;4893620;29;20405;-70
2021/04/24 18:46:44;;;;;;;2.63;2.03;;;10.70;50.20;;;;;;4910327;29;20055;-69
2021/04/24 18:49:11;;;;;;;4.05;1.98;;;10.60;50.60;;;;;;4912780;29;20024;-68
2021/04/24 18:51:37;;;;;;;4.70;2.20;;;10.50;50.50;;;;;;4903572;29;20043;-66
2021/04/24 18:54:03;;;;;;;5.05;2.13;;;10.40;50.50;;;;;;4892985;29;20044;-68
2021/04/24 18:56:29;;;;;;;3.60;1.98;;;10.30;51.00;;;;;;4893253;29;20039;-71
2021/04/24 18:58:54;;;;;;;5.00;2.22;;;10.20;50.80;;;;;;4901320;29;20052;-70
2021/04/24 19:01:20;;;;;;;4.95;2.25;;;10.20;50.70;;;;;;4903937;29;20112;-68
2021/04/24 19:03:46;;;;;;;3.47;2.15;;;10.10;50.90;;;;;;4893262;29;20032;-68
2021/04/24 19:06:12;;;;;;;5.43;2.38;;;10.00;51.60;;;;;;4893194;29;20931;-71
2021/04/24 19:08:38;;;;;;;3.30;1.77;;;9.90;51.50;;;;;;4893089;29;20184;-68
2021/04/24 19:11:04;;;;;;;3.03;1.98;;;9.80;51.20;;;;;;4892946;29;20035;-68
2021/04/24 19:13:30;;;;;;;3.80;1.80;;;9.80;51.40;;;;;;4893708;29;20037;-68
2021/04/24 19:15:56;;;;;;;5.25;1.83;;;9.80;51.60;;;;;;4891913;29;20032;-68
2021/04/24 19:18:24;;;;;;;4.40;2.30;;;9.70;51.90;;;;;;4893377;29;20035;-68
2021/04/24 19:20:51;;;;;;;3.35;2.30;;;9.60;52.30;;;;;;4892244;29;20104;-73
2021/04/24 19:23:18;;;;;;;3.50;2.15;;;9.50;51.90;;;;;;4905715;29;20408;-69
2021/04/24 19:25:45;;;;;;;3.05;1.73;;;9.50;52.50;;;;;;4910024;29;20039;-70
2021/04/24 19:28:14;;;;;;;4.78;2.22;;;9.40;52.90;;;;;;4896186;29;20512;-68
2021/04/24 19:30:40;;;;;;;3.13;2.10;;;9.40;52.80;;;;;;4905091;29;20512;-67
2021/04/24 19:33:06;;;;;;;5.63;2.22;;;9.30;53.00;;;;;;4911532;29;20032;-69
2021/04/24 19:35:32;;;;;;;4.18;2.25;;;9.20;53.20;;;;;;4908480;29;20362;-68
2021/04/24 19:37:57;;;;;;;4.70;2.47;;;9.20;53.80;;;;;;4911433;29;20050;-68
2021/04/24 19:40:24;;;;;;;3.00;2.22;;;9.20;54.30;;;;;;4911322;29;20051;-68
2021/04/24 19:42:51;;;;;;;5.70;2.42;;;9.10;54.50;;;;;;4911020;29;20477;-71
2021/04/24 19:45:19;;;;;;;5.55;2.53;;;9.00;55.30;;;;;;4910530;29;20028;-68
2021/04/24 19:47:47;;;;;;;4.95;2.65;;;9.00;56.40;;;;;;4910834;29;20497;-69
2021/04/24 19:50:14;;;;;;;4.57;2.60;;;8.90;57.40;;;;;;4900937;29;20107;-69
2021/04/24 19:52:40;;;;;;;6.45;2.80;;;8.90;56.90;;;;;;4892671;29;20029;-70
2021/04/24 19:55:07;;;;;;;4.38;2.47;;;8.80;56.90;;;;;;4893290;29;20119;-68
2021/04/24 19:57:33;;;;;;;7.63;2.67;;;8.70;57.10;;;;;;4908425;29;20048;-67
2021/04/24 20:00:00;;;;;;;3.90;2.33;;;8.70;58.10;;;;;;4910913;29;20067;-69
2021/04/24 20:02:26;;;;;;;5.40;2.58;;;8.60;58.20;;;;;;4910784;29;20516;-68
2021/04/24 20:04:52;;;;;;;3.65;2.28;;;8.60;58.40;;;;;;4899409;29;20032;-68
2021/04/24 20:07:18;;;;;;;4.93;2.65;;;8.60;58.40;;;;;;4890886;29;20043;-67
2021/04/24 20:09:47;;;;;;;4.22;2.58;;;8.50;58.90;;;;;;4891435;29;20028;-67
2021/04/24 20:12:13;;;;;;;5.45;2.88;;;8.50;59.40;;;;;;4892891;29;20036;-68
2021/04/24 20:14:39;;;;;;;6.25;2.83;;;8.40;59.40;;;;;;4892255;29;20029;-70
2021/04/24 20:17:06;;;;;;;10.48;3.67;;;8.40;60.40;;;;;;4891576;29;20055;-67
2021/04/24 20:19:32;;;;;;;7.22;3.20;;;8.40;60.50;;;;;;4892327;29;20486;-67
2021/04/24 20:21:57;;;;;;;11.15;3.38;;;8.30;60.40;;;;;;4891870;29;20037;-66
2021/04/24 20:24:23;;;;;;;6.68;3.15;;;8.30;60.60;;;;;;4908031;29;20291;-69
2021/04/24 20:26:48;;;;;;;7.03;3.22;;;8.20;60.80;;;;;;4910893;29;20091;-68
2021/04/24 20:29:14;;;;;;;7.22;3.08;;;8.20;61.60;;;;;;4911197;29;20025;-68
2021/04/24 20:31:39;;;;;;;8.45;3.10;;;8.10;62.30;;;;;;4910286;29;20024;-68
2021/04/24 20:34:07;;;;;;;6.18;3.55;;;8.10;62.20;;;;;;4910445;29;20036;-69
2021/04/24 20:36:33;;;;;;;5.45;3.45;;;8.00;62.40;;;;;;4911550;29;20088;-68
2021/04/24 20:38:58;;;;;;;6.05;3.92;;;8.00;63.50;;;;;;4894993;29;20040;-68
2021/04/24 20:41:24;;;;;;;6.53;3.78;;;7.90;63.80;;;;;;4892384;29;20029;-69
2021/04/24 20:43:49;;;;;;;7.07;3.45;;;7.90;63.70;;;;;;4893932;29;20032;-68
2021/04/24 20:46:15;;;;;;;6.05;3.50;;;7.90;63.80;;;;;;4904487;29;20067;-67
2021/04/24 20:48:41;;;;;;;6.25;3.80;;;7.80;64.30;;;;;;4910840;29;20028;-68
2021/04/24 20:51:08;;;;;;;5.80;4.35;;;7.80;64.70;;;;;;4908726;29;20025;-67
2021/04/24 20:53:34;;;;;;;7.75;3.83;;;7.80;64.70;;;;;;4909900;29;20489;-67
2021/04/24 20:55:59;;;;;;;9.45;4.00;;;7.70;64.80;;;;;;4922028;29;20051;-68
2021/04/24 20:58:26;;;;;;;6.60;3.90;;;7.70;65.20;;;;;;4928035;29;20469;-70
2021/04/24 21:00:52;;;;;;;9.20;4.55;;;7.70;65.50;;;;;;4928988;29;20037;-68
2021/04/24 21:03:17;;;;;;;7.20;4.35;;;7.60;65.80;;;;;;4916286;29;20040;-68
2021/04/24 21:05:43;;;;;;;8.00;3.75;;;7.50;66.10;;;;;;4898970;29;20497;-68
2021/04/24 21:08:10;;;;;;;9.40;4.60;;;7.50;66.60;;;;;;4890499;29;20116;-72
2021/04/24 21:10:36;;;;;;;9.35;5.18;;;7.50;67.20;;;;;;4891266;29;20064;-67
2021/04/24 21:13:01;;;;;;;9.63;4.88;;;7.40;67.30;;;;;;4891204;29;20056;-68
2021/04/24 21:15:27;;;;;;;9.02;4.20;;;7.40;67.50;;;;;;4891749;29;20041;-66
2021/04/24 21:17:53;;;;;;;9.10;5.22;;;7.30;68.30;;;;;;4891287;29;20370;-68
2021/04/24 21:20:18;;;;;;;11.13;6.07;;;7.30;69.00;;;;;;4899267;29;20040;-67
2021/04/24 21:22:47;;;;;;;7.57;4.28;;;7.20;69.10;;;;;;4894866;29;20045;-69
2021/04/24 21:25:14;;;;;;;8.30;4.70;;;7.10;69.60;;;;;;4895215;29;20043;-70
2021/04/24 21:27:40;;;;;;;8.73;4.88;;;7.10;69.90;;;;;;4894781;29;20120;-68
2021/04/24 21:30:07;;;;;;;8.95;4.93;;;7.10;70.50;;;;;;4895104;29;20108;-68
2021/04/24 21:32:33;;;;;;;10.90;4.70;;;7.00;70.80;;;;;;4895354;29;20036;-68
2021/04/24 21:34:59;;;;;;;9.18;4.70;;;7.00;71.40;;;;;;4910335;29;20103;-67
2021/04/24 21:37:25;;;;;;;8.82;5.13;;;6.90;71.80;;;;;;4913625;29;20051;-67
2021/04/24 21:39:51;;;;;;;17.80;5.82;;;6.90;72.20;;;;;;4913575;29;20031;-70
2021/04/24 21:42:16;;;;;;;8.65;4.90;;;6.90;73.10;;;;;;4905135;29;20064;-70
2021/04/24 21:44:43;;;;;;;8.98;5.47;;;6.80;72.80;;;;;;4896131;29;20025;-72
2021/04/24 21:47:12;;;;;;;8.68;5.22;;;6.80;72.70;;;;;;4913437;29;20036;-68
2021/04/24 21:49:38;;;;;;;9.00;6.32;;;6.80;73.40;;;;;;4912499;29;20500;-67
2021/04/24 21:52:06;;;;;;;10.30;6.13;;;6.70;73.40;;;;;;4911594;29;20055;-72
2021/04/24 21:54:32;;;;;;;9.00;5.53;;;6.70;73.60;;;;;;4912239;29;20036;-69
2021/04/24 21:56:57;;;;;;;12.05;5.20;;;6.70;73.60;;;;;;4913090;29;20024;-69
2021/04/24 21:59:23;;;;;;;11.50;5.82;;;6.70;73.90;;;;;;4906284;29;20075;-68
2021/04/24 22:01:48;;;;;;;10.75;6.50;;;6.60;74.20;;;;;;4913364;29;20027;-68
2021/04/24 22:04:14;;;;;;;9.38;5.45;;;6.60;74.20;;;;;;4912553;29;20032;-71
2021/04/24 22:06:39;;;;;;;10.02;6.25;;;6.60;74.50;;;;;;4915397;29;20032;-66
2021/04/24 22:09:06;;;;;;;7.18;5.38;;;6.60;74.90;;;;;;4915498;29;20037;-67
2021/04/24 22:11:32;;;;;;;9.98;5.75;;;6.50;74.90;;;;;;4916904;29;20107;-65
2021/04/24 22:13:58;;;;;;;13.80;6.00;;;6.50;75.40;;;;;;4916101;29;20115;-65
2021/04/24 22:16:23;;;;;;;15.13;6.13;;;6.50;75.70;;;;;;4915631;29;20028;-66
2021/04/24 22:18:49;;;;;;;13.00;6.28;;;6.40;76.10;;;;;;4916402;29;20028;-66
2021/04/24 22:21:14;;;;;;;12.55;6.28;;;6.40;76.40;;;;;;4916750;29;20024;-67
2021/04/24 22:23:40;;;;;;;8.50;6.05;;;6.40;76.90;;;;;;4915853;29;20024;-69
2021/04/24 22:26:06;;;;;;;10.77;6.47;;;6.30;77.30;;;;;;4916317;29;20020;-68
2021/04/24 22:28:31;;;;;;;11.18;6.82;;;6.30;77.90;;;;;;4916476;29;20032;-67
2021/04/24 22:30:57;;;;;;;8.80;6.57;;;6.20;77.70;;;;;;4914870;29;20397;-67
2021/04/24 22:33:24;;;;;;;11.80;6.65;;;6.20;78.30;;;;;;4916600;29;20039;-66
2021/04/24 22:35:49;;;;;;;10.77;6.28;;;6.20;78.60;;;;;;4914688;29;20469;-66
2021/04/24 22:38:15;;;;;;;14.25;6.28;;;6.10;79.00;;;;;;4915696;29;20032;-66
2021/04/24 22:40:41;;;;;;;11.90;6.05;;;6.10;79.50;;;;;;4914855;29;20020;-69
2021/04/24 22:43:06;;;;;;;12.45;7.38;;;6.10;79.70;;;;;;4916231;29;20492;-67
2021/04/24 22:45:32;;;;;;;9.82;7.15;;;6.10;80.30;;;;;;4915493;29;20035;-66
2021/04/24 22:47:58;;;;;;;10.88;6.90;;;6.00;81.30;;;;;;4915568;29;20036;-66